createdAt,value
2022-11-06T00:00:54.611Z,6.03
2022-11-06T00:03:22.146Z,6.63
2022-11-06T00:06:07.382Z,5.40
2022-11-06T00:08:36.933Z,5.90
2022-11-06T00:11:09.538Z,4.83
2022-11-06T00:13:37.143Z,5.40
2022-11-06T00:16:05.056Z,3.10
2022-11-06T00:18:32.729Z,6.77
2022-11-06T00:21:00.293Z,8.30
2022-11-06T00:23:27.798Z,5.17
2022-11-06T00:25:56.704Z,5.00
2022-11-06T00:28:24.400Z,8.10
2022-11-06T00:30:51.805Z,6.67
2022-11-06T00:33:19.293Z,6.23
2022-11-06T00:35:46.796Z,6.80
2022-11-06T00:38:14.583Z,5.13
2022-11-06T00:40:42.208Z,6.60
2022-11-06T00:43:10.996Z,7.70
2022-11-06T00:45:38.459Z,13.53
2022-11-06T00:48:06.771Z,5.73
2022-11-06T00:50:34.215Z,9.27
2022-11-06T00:53:01.661Z,6.80
2022-11-06T00:55:29.079Z,5.10
2022-11-06T00:57:56.634Z,4.60
2022-11-06T01:00:25.678Z,8.27
2022-11-06T01:02:53.460Z,4.90
2022-11-06T01:05:20.960Z,6.43
2022-11-06T01:07:48.389Z,4.97
2022-11-06T01:10:16.181Z,5.47
2022-11-06T01:12:43.682Z,7.70
2022-11-06T01:15:11.337Z,7.07
2022-11-06T01:17:40.125Z,5.23
2022-11-06T01:20:08.067Z,5.47
2022-11-06T01:22:35.502Z,8.67
2022-11-06T01:25:02.987Z,6.33
2022-11-06T01:27:30.633Z,6.10
2022-11-06T01:29:58.094Z,5.50
2022-11-06T01:32:25.520Z,8.00
2022-11-06T01:34:54.278Z,7.77
2022-11-06T01:37:21.897Z,8.23
2022-11-06T01:39:50.120Z,8.00
2022-11-06T01:42:20.525Z,5.10
2022-11-06T01:45:15.073Z,4.23
2022-11-06T01:47:43.427Z,6.03
2022-11-06T01:50:13.417Z,6.47
2022-11-06T01:52:41.020Z,4.77
2022-11-06T01:55:11.394Z,5.03
2022-11-06T01:57:39.160Z,5.47
2022-11-06T02:00:07.351Z,5.97
2022-11-06T02:02:35.111Z,5.43
2022-11-06T02:05:02.801Z,5.17
2022-11-06T02:07:31.696Z,5.90
2022-11-06T02:09:59.145Z,7.40
2022-11-06T02:12:33.042Z,6.80
2022-11-06T02:15:02.719Z,9.63
2022-11-06T02:17:39.315Z,4.17
2022-11-06T02:20:11.355Z,6.73
2022-11-06T02:22:50.353Z,3.53
2022-11-06T02:25:21.471Z,2.90
2022-11-06T02:27:53.348Z,3.70
2022-11-06T02:30:21.017Z,2.73
2022-11-06T02:32:51.421Z,3.73
2022-11-06T02:35:21.634Z,5.40
2022-11-06T02:37:53.673Z,3.70
2022-11-06T02:40:22.183Z,6.07
2022-11-06T02:42:53.455Z,4.50
2022-11-06T02:45:21.067Z,4.30
2022-11-06T02:47:50.417Z,6.93
2022-11-06T02:50:21.927Z,6.43
2022-11-06T02:52:51.593Z,4.90
2022-11-06T02:55:22.390Z,5.10
2022-11-06T02:57:53.230Z,7.70
2022-11-06T03:00:22.108Z,6.70
2022-11-06T03:02:51.834Z,5.03
2022-11-06T03:05:22.659Z,5.33
2022-11-06T03:07:53.148Z,6.50
2022-11-06T03:10:20.823Z,6.00
2022-11-06T03:12:56.260Z,6.23
2022-11-06T03:15:27.238Z,6.00
2022-11-06T03:18:00.450Z,5.73
2022-11-06T03:20:30.867Z,5.60
2022-11-06T03:23:01.856Z,6.80
2022-11-06T03:25:31.096Z,3.77
2022-11-06T03:28:02.892Z,5.13
2022-11-06T03:30:30.525Z,4.80
2022-11-06T03:32:59.510Z,4.13
2022-11-06T03:35:29.854Z,6.90
2022-11-06T03:37:58.830Z,8.50
2022-11-06T03:40:28.163Z,6.27
2022-11-06T03:42:56.567Z,9.77
2022-11-06T03:45:27.566Z,7.20
2022-11-06T03:47:58.413Z,6.50
2022-11-06T03:50:28.932Z,6.93
2022-11-06T03:52:57.421Z,8.37
2022-11-06T03:55:28.445Z,10.10
2022-11-06T03:57:58.063Z,7.70
2022-11-06T04:00:26.846Z,6.33
2022-11-06T04:03:04.788Z,6.87
2022-11-06T04:05:33.679Z,6.97
2022-11-06T04:08:18.930Z,9.33
2022-11-06T04:11:05.930Z,8.20
2022-11-06T04:13:52.286Z,6.17
2022-11-06T04:16:21.543Z,5.63
2022-11-06T04:18:48.967Z,7.50
2022-11-06T04:21:26.050Z,4.60
2022-11-06T04:24:20.115Z,6.93
2022-11-06T04:26:52.263Z,7.43
2022-11-06T04:29:26.291Z,5.53
2022-11-06T04:31:59.685Z,5.90
2022-11-06T04:34:32.202Z,5.77
2022-11-06T04:37:02.808Z,4.13
2022-11-06T04:39:34.825Z,7.30
2022-11-06T04:42:06.946Z,4.20
2022-11-06T04:44:36.936Z,6.53
2022-11-06T04:47:07.106Z,4.80
2022-11-06T04:49:36.155Z,4.37
2022-11-06T04:52:05.123Z,4.73
2022-11-06T04:54:32.972Z,6.23
2022-11-06T04:57:01.171Z,3.70
2022-11-06T04:59:28.972Z,6.47
2022-11-06T05:01:56.480Z,5.33
2022-11-06T05:04:25.267Z,5.00
2022-11-06T05:06:52.734Z,6.57
2022-11-06T05:09:20.456Z,3.90
2022-11-06T05:11:47.894Z,4.63
2022-11-06T05:14:15.316Z,6.20
2022-11-06T05:16:42.836Z,4.93
2022-11-06T05:19:10.320Z,5.27
2022-11-06T05:21:57.059Z,3.63
2022-11-06T05:24:24.514Z,3.53
2022-11-06T05:26:57.913Z,3.10
2022-11-06T05:29:26.674Z,7.13
2022-11-06T05:31:54.196Z,5.23
2022-11-06T05:34:21.654Z,2.77
2022-11-06T05:36:50.406Z,5.20
2022-11-06T05:39:17.847Z,4.43
2022-11-06T05:41:45.276Z,3.87
2022-11-06T05:44:12.970Z,5.00
2022-11-06T05:46:48.744Z,4.40
2022-11-06T05:49:16.926Z,4.30
2022-11-06T05:51:44.588Z,6.60
2022-11-06T05:54:13.353Z,3.83
2022-11-06T05:56:40.766Z,4.00
2022-11-06T05:59:08.204Z,3.23
2022-11-06T06:01:35.995Z,4.33
2022-11-06T06:04:03.734Z,4.03
2022-11-06T06:06:31.245Z,3.37
2022-11-06T06:08:58.816Z,3.70
2022-11-06T06:11:27.601Z,3.23
2022-11-06T06:13:55.159Z,3.67
2022-11-06T06:16:22.611Z,2.93
2022-11-06T06:18:50.891Z,3.87
2022-11-06T06:21:18.718Z,3.90
2022-11-06T06:23:46.481Z,6.33
2022-11-06T06:26:13.904Z,3.30
2022-11-06T06:28:42.660Z,4.37
2022-11-06T06:31:10.276Z,2.27
2022-11-06T06:33:37.714Z,3.23
2022-11-06T06:36:05.628Z,6.80
2022-11-06T06:38:33.069Z,3.67
2022-11-06T06:41:03.846Z,2.90
2022-11-06T06:43:31.591Z,4.20
2022-11-06T06:46:00.852Z,3.60
2022-11-06T06:48:28.755Z,3.60
2022-11-06T06:50:57.650Z,4.83
2022-11-06T06:53:25.188Z,7.07
2022-11-06T06:55:52.633Z,4.20
2022-11-06T06:58:20.900Z,5.67
2022-11-06T07:00:48.616Z,2.93
2022-11-06T07:03:17.758Z,3.40
2022-11-06T07:05:46.711Z,3.37
2022-11-06T07:08:14.825Z,3.13
2022-11-06T07:10:42.814Z,5.47
2022-11-06T07:13:10.702Z,3.70
2022-11-06T07:15:38.300Z,2.63
2022-11-06T07:18:06.595Z,4.23
2022-11-06T07:20:35.886Z,2.70
2022-11-06T07:23:05.992Z,5.00
2022-11-06T07:25:33.425Z,7.00
2022-11-06T07:28:02.853Z,6.07
2022-11-06T07:30:30.868Z,6.17
2022-11-06T07:33:00.640Z,6.97
2022-11-06T07:35:28.232Z,7.30
2022-11-06T07:37:57.013Z,4.97
2022-11-06T07:40:24.562Z,6.80
2022-11-06T07:42:52.003Z,5.03
2022-11-06T07:45:20.220Z,7.40
2022-11-06T07:47:47.633Z,8.70
2022-11-06T07:50:15.313Z,6.67
2022-11-06T07:52:42.735Z,8.77
2022-11-06T07:55:11.762Z,7.57
2022-11-06T07:57:39.222Z,8.60
2022-11-06T08:00:07.491Z,8.70
2022-11-06T08:02:40.205Z,7.20
2022-11-06T08:05:07.993Z,8.20
2022-11-06T08:07:35.889Z,8.73
2022-11-06T08:10:03.476Z,10.13
2022-11-06T08:12:32.249Z,10.87
2022-11-06T08:14:59.666Z,10.67
2022-11-06T08:17:28.261Z,12.73
2022-11-06T08:19:55.740Z,9.67
2022-11-06T08:22:23.255Z,9.77
2022-11-06T08:24:50.744Z,12.33
2022-11-06T08:27:18.179Z,10.17
2022-11-06T08:29:46.922Z,10.57
2022-11-06T08:32:14.353Z,12.37
2022-11-06T08:34:42.179Z,10.17
2022-11-06T08:37:10.285Z,10.30
2022-11-06T08:39:37.714Z,8.80
2022-11-06T08:42:05.742Z,8.83
2022-11-06T08:44:33.196Z,8.17
2022-11-06T08:47:01.966Z,15.30
2022-11-06T08:49:29.415Z,10.57
2022-11-06T08:51:56.922Z,9.60
2022-11-06T08:54:24.477Z,8.70
2022-11-06T08:56:51.911Z,11.07
2022-11-06T08:59:19.339Z,9.00
2022-11-06T09:01:46.874Z,6.77
2022-11-06T09:04:15.683Z,8.47
2022-11-06T09:06:43.106Z,7.20
2022-11-06T09:09:10.649Z,7.43
2022-11-06T09:11:38.104Z,6.20
2022-11-06T09:14:05.564Z,6.00
2022-11-06T09:16:33.166Z,6.23
2022-11-06T09:19:00.857Z,6.43
2022-11-06T09:21:29.716Z,6.43
2022-11-06T09:23:57.331Z,5.90
2022-11-06T09:26:24.754Z,6.23
2022-11-06T09:28:52.202Z,6.30
2022-11-06T09:31:19.785Z,5.30
2022-11-06T09:33:47.241Z,5.83
2022-11-06T09:36:14.708Z,5.90
2022-11-06T09:38:43.526Z,5.23
2022-11-06T09:41:18.674Z,6.10
2022-11-06T09:44:05.149Z,6.20
2022-11-06T09:46:35.268Z,5.67
2022-11-06T09:49:06.469Z,4.23
2022-11-06T09:51:37.907Z,7.73
2022-11-06T09:54:11.868Z,4.80
2022-11-06T09:56:40.792Z,6.77
2022-11-06T09:59:11.975Z,6.60
2022-11-06T10:01:42.091Z,8.37
2022-11-06T10:04:15.552Z,5.13
2022-11-06T10:06:43.084Z,6.27
2022-11-06T10:09:13.139Z,4.77
2022-11-06T10:11:46.774Z,5.77
2022-11-06T10:14:18.451Z,5.67
2022-11-06T10:16:49.303Z,8.53
2022-11-06T10:19:32.542Z,7.03
2022-11-06T10:22:02.758Z,5.93
2022-11-06T10:24:35.380Z,5.97
2022-11-06T10:27:05.315Z,7.07
2022-11-06T10:29:41.402Z,10.50
2022-11-06T10:32:24.932Z,6.17
2022-11-06T10:34:55.496Z,6.27
2022-11-06T10:37:25.546Z,5.20
2022-11-06T10:39:55.180Z,5.77
2022-11-06T10:42:24.352Z,6.63
2022-11-06T10:44:56.588Z,5.73
2022-11-06T10:47:25.186Z,6.13
2022-11-06T10:49:54.195Z,4.73
2022-11-06T10:52:29.406Z,5.83
2022-11-06T10:55:04.683Z,6.20
2022-11-06T10:57:37.791Z,5.20
2022-11-06T11:00:05.386Z,6.07
2022-11-06T11:02:35.288Z,7.17
2022-11-06T11:05:02.949Z,5.00
2022-11-06T11:07:31.638Z,7.33
2022-11-06T11:09:59.118Z,7.27
2022-11-06T11:12:28.971Z,11.83
2022-11-06T11:15:12.892Z,6.13
2022-11-06T11:17:40.970Z,5.03
2022-11-06T11:20:23.318Z,5.73
2022-11-06T11:23:05.213Z,6.27
2022-11-06T11:25:32.771Z,6.13
2022-11-06T11:28:10.562Z,5.40
2022-11-06T11:30:38.123Z,9.07
2022-11-06T11:33:13.466Z,3.97
2022-11-06T11:35:41.151Z,5.00
2022-11-06T11:38:11.990Z,8.83
2022-11-06T11:40:40.774Z,6.70
2022-11-06T11:43:25.740Z,4.47
2022-11-06T11:46:02.611Z,3.87
2022-11-06T11:48:41.732Z,7.43
2022-11-06T11:51:13.710Z,6.40
2022-11-06T11:53:41.340Z,5.80
2022-11-06T11:56:14.684Z,5.63
2022-11-06T11:58:49.585Z,4.97
2022-11-06T12:01:17.115Z,4.60
2022-11-06T12:03:46.101Z,4.23
2022-11-06T12:06:15.050Z,6.00
2022-11-06T12:08:46.725Z,5.67
2022-11-06T12:11:15.673Z,4.10
2022-11-06T12:13:44.471Z,5.30
2022-11-06T12:16:14.724Z,5.03
2022-11-06T12:18:44.722Z,4.77
2022-11-06T12:21:15.235Z,4.30
2022-11-06T12:23:44.652Z,6.03
2022-11-06T12:26:19.425Z,3.83
2022-11-06T12:28:49.589Z,4.30
2022-11-06T12:31:20.625Z,4.90
2022-11-06T12:34:05.583Z,4.63
2022-11-06T12:36:39.198Z,5.50
2022-11-06T12:39:11.424Z,5.27
2022-11-06T12:41:40.120Z,6.63
2022-11-06T12:44:11.127Z,6.57
2022-11-06T12:46:41.046Z,10.03
2022-11-06T12:49:29.519Z,6.80
2022-11-06T12:52:02.621Z,7.77
2022-11-06T12:54:38.789Z,6.83
2022-11-06T12:57:12.387Z,5.53
2022-11-06T12:59:47.548Z,5.63
2022-11-06T13:02:23.173Z,7.37
2022-11-06T13:04:54.542Z,5.20
2022-11-06T13:07:31.107Z,6.33
2022-11-06T13:10:08.093Z,5.63
2022-11-06T13:12:41.440Z,5.97
2022-11-06T13:15:17.620Z,5.40
2022-11-06T13:17:48.720Z,4.60
2022-11-06T13:20:19.186Z,6.80
2022-11-06T13:22:51.684Z,5.80
2022-11-06T13:25:21.940Z,4.77
2022-11-06T13:27:51.816Z,6.03
2022-11-06T13:30:21.617Z,5.67
2022-11-06T13:33:00.138Z,7.90
2022-11-06T13:35:28.700Z,7.90
2022-11-06T13:37:57.220Z,10.93
2022-11-06T13:40:28.421Z,12.23
2022-11-06T13:42:58.542Z,12.73
2022-11-06T13:45:28.197Z,13.23
2022-11-06T13:48:01.384Z,12.27
2022-11-06T13:50:32.609Z,10.00
2022-11-06T13:53:02.886Z,13.03
2022-11-06T13:55:36.866Z,11.30
2022-11-06T13:58:23.296Z,9.80
2022-11-06T14:00:57.002Z,13.50
2022-11-06T14:03:39.805Z,10.33
2022-11-06T14:06:08.456Z,10.93
2022-11-06T14:08:40.080Z,10.50
2022-11-06T14:11:11.809Z,11.83
2022-11-06T14:13:39.379Z,11.50
2022-11-06T14:16:25.997Z,11.53
2022-11-06T14:18:57.669Z,10.43
2022-11-06T14:21:52.469Z,12.43
2022-11-06T14:24:37.902Z,13.03
2022-11-06T14:27:08.873Z,16.83
2022-11-06T14:29:43.262Z,13.37
2022-11-06T14:32:13.026Z,14.13
2022-11-06T14:34:41.458Z,10.47
2022-11-06T14:37:30.981Z,11.27
2022-11-06T14:40:06.112Z,10.77
2022-11-06T14:42:34.860Z,8.93
2022-11-06T14:45:09.310Z,12.07
2022-11-06T14:47:39.056Z,10.30
2022-11-06T14:50:09.069Z,11.73
2022-11-06T14:52:41.928Z,10.47
2022-11-06T14:55:09.787Z,11.83
2022-11-06T14:57:41.005Z,11.07
2022-11-06T15:00:09.411Z,9.40
2022-11-06T15:02:38.581Z,10.20
2022-11-06T15:05:07.848Z,11.77
2022-11-06T15:08:04.854Z,8.73
2022-11-06T15:10:50.014Z,10.00
2022-11-06T15:13:24.968Z,11.03
2022-11-06T15:15:53.684Z,9.43
2022-11-06T15:18:23.338Z,8.97
2022-11-06T15:20:51.928Z,8.87
2022-11-06T15:23:21.203Z,8.67
2022-11-06T15:25:51.002Z,7.27
2022-11-06T15:28:20.610Z,10.23
2022-11-06T15:30:49.014Z,11.50
2022-11-06T15:33:18.609Z,13.00
2022-11-06T15:35:49.529Z,10.30
2022-11-06T15:38:18.790Z,12.03
2022-11-06T15:40:46.573Z,10.07
2022-11-06T15:43:21.565Z,11.07
2022-11-06T15:46:06.778Z,12.57
2022-11-06T15:48:35.184Z,12.33
2022-11-06T15:51:05.486Z,16.63
2022-11-06T15:53:38.287Z,17.27
2022-11-06T15:56:09.495Z,16.60
2022-11-06T15:58:37.550Z,16.37
2022-11-06T16:01:06.360Z,25.23
2022-11-06T16:03:44.043Z,25.13
2022-11-06T16:06:12.880Z,21.83
2022-11-06T16:08:40.940Z,17.10
2022-11-06T16:11:13.454Z,26.30
2022-11-06T16:13:41.639Z,24.07
2022-11-06T16:16:28.495Z,20.93
2022-11-06T16:18:56.000Z,16.00
2022-11-06T16:21:26.104Z,17.23
2022-11-06T16:23:54.436Z,26.43
2022-11-06T16:26:24.206Z,314.43
2022-11-06T16:28:52.591Z,219.80
2022-11-06T16:31:21.392Z,63.97
2022-11-06T16:33:55.602Z,49.63
2022-11-06T16:36:23.434Z,36.90
2022-11-06T16:38:52.534Z,24.90
2022-11-06T16:41:38.829Z,19.53
2022-11-06T16:44:27.610Z,11.73
2022-11-06T16:47:14.683Z,12.67
2022-11-06T16:49:42.548Z,15.03
2022-11-06T16:52:26.992Z,15.77
2022-11-06T16:54:57.423Z,17.33
2022-11-06T16:57:26.260Z,17.27
2022-11-06T16:59:57.998Z,15.27
2022-11-06T17:02:27.827Z,15.67
2022-11-06T17:05:07.164Z,15.70
2022-11-06T17:07:34.895Z,14.17
2022-11-06T17:10:17.210Z,16.90
2022-11-06T17:12:45.962Z,22.83
2022-11-06T17:15:13.404Z,20.43
2022-11-06T17:17:40.850Z,19.67
2022-11-06T17:20:12.868Z,19.20
2022-11-06T17:22:40.352Z,25.50
2022-11-06T17:25:08.219Z,30.77
2022-11-06T17:27:35.686Z,27.17
2022-11-06T17:30:04.744Z,26.53
2022-11-06T17:32:32.231Z,27.60
2022-11-06T17:34:59.723Z,35.90
2022-11-06T17:37:27.221Z,27.77
2022-11-06T17:39:54.787Z,25.03
2022-11-06T17:42:22.378Z,17.03
2022-11-06T17:44:49.853Z,19.07
2022-11-06T17:47:18.624Z,16.53
2022-11-06T17:49:46.788Z,11.77
2022-11-06T17:52:14.227Z,12.63
2022-11-06T17:54:41.694Z,14.53
2022-11-06T17:57:09.212Z,12.97
2022-11-06T17:59:36.942Z,12.63
2022-11-06T18:02:04.523Z,13.13
2022-11-06T18:04:34.269Z,15.67
2022-11-06T18:07:01.802Z,11.70
2022-11-06T18:09:29.327Z,11.20
2022-11-06T18:11:57.116Z,11.60
2022-11-06T18:14:25.663Z,18.97
2022-11-06T18:16:53.783Z,16.70
2022-11-06T18:19:22.434Z,12.17
2022-11-06T18:21:51.580Z,14.27
2022-11-06T18:24:19.155Z,11.70
2022-11-06T18:26:46.689Z,13.20
2022-11-06T18:29:14.832Z,13.53
2022-11-06T18:31:42.410Z,9.83
2022-11-06T18:34:16.653Z,12.03
2022-11-06T18:36:47.298Z,11.43
2022-11-06T18:39:16.077Z,11.30
2022-11-06T18:41:43.557Z,12.53
2022-11-06T18:44:10.988Z,18.47
2022-11-06T18:46:38.407Z,17.37
2022-11-06T18:49:06.005Z,14.97
2022-11-06T18:51:36.056Z,12.30
2022-11-06T18:54:05.567Z,10.70
2022-11-06T18:56:35.923Z,13.67
2022-11-06T18:59:03.729Z,9.90
2022-11-06T19:01:31.348Z,10.10
2022-11-06T19:03:59.065Z,15.53
2022-11-06T19:06:26.607Z,15.97
2022-11-06T19:08:54.052Z,11.33
2022-11-06T19:11:21.702Z,10.30
2022-11-06T19:13:50.725Z,12.53
2022-11-06T19:16:19.269Z,12.13
2022-11-06T19:21:29.107Z,8.67
2022-11-06T19:24:03.325Z,8.30
2022-11-06T19:26:32.475Z,5.17
2022-11-06T19:29:02.010Z,5.93
2022-11-06T19:31:30.338Z,7.37
2022-11-06T19:33:58.579Z,6.27
2022-11-06T19:36:26.273Z,7.03
2022-11-06T19:38:53.757Z,7.47
2022-11-06T19:41:21.327Z,6.90
2022-11-06T19:43:49.071Z,5.33
2022-11-06T19:46:24.145Z,7.13
2022-11-06T19:48:53.433Z,6.97
2022-11-06T19:51:20.924Z,7.33
2022-11-06T19:53:52.136Z,6.80
2022-11-06T19:56:19.598Z,9.77
2022-11-06T19:58:48.479Z,7.73
2022-11-06T20:01:16.184Z,7.60
2022-11-06T20:03:46.258Z,7.30
2022-11-06T20:06:14.419Z,9.07
2022-11-06T20:08:42.033Z,8.50
2022-11-06T20:11:12.217Z,7.77
2022-11-06T20:13:39.902Z,9.03
2022-11-06T20:16:08.446Z,12.17
2022-11-06T20:18:36.575Z,8.23
2022-11-06T20:21:06.218Z,11.27
2022-11-06T20:23:36.285Z,8.73
2022-11-06T20:26:04.654Z,10.80
2022-11-06T20:28:32.176Z,9.63
2022-11-06T20:30:59.640Z,13.53
2022-11-06T20:33:27.353Z,8.23
2022-11-06T20:35:54.802Z,9.80
2022-11-06T20:38:25.675Z,10.73
2022-11-06T20:40:54.850Z,11.60
2022-11-06T20:43:22.956Z,11.27
2022-11-06T20:45:50.460Z,12.77
2022-11-06T20:48:17.938Z,12.63
2022-11-06T20:50:45.363Z,11.30
2022-11-06T20:53:13.036Z,13.73
2022-11-06T20:55:42.030Z,12.60
2022-11-06T20:58:09.701Z,12.77
2022-11-06T21:00:37.116Z,12.07
2022-11-06T21:03:04.679Z,10.40
2022-11-06T21:05:35.355Z,13.33
2022-11-06T21:08:02.887Z,12.47
2022-11-06T21:10:30.327Z,12.03
2022-11-06T21:12:59.524Z,10.67
2022-11-06T21:15:26.955Z,9.80
2022-11-06T21:17:54.430Z,11.23
2022-11-06T21:20:23.152Z,13.73
2022-11-06T21:22:50.787Z,11.27
2022-11-06T21:25:18.377Z,10.83
2022-11-06T21:27:45.847Z,12.77
2022-11-06T21:30:14.788Z,11.70
2022-11-06T21:32:42.433Z,11.90
2022-11-06T21:35:10.019Z,12.07
2022-11-06T21:37:37.503Z,11.20
2022-11-06T21:40:05.425Z,11.07
2022-11-06T21:42:32.944Z,12.33
2022-11-06T21:45:00.384Z,12.23
2022-11-06T21:47:29.210Z,11.90
2022-11-06T21:49:56.661Z,12.10
2022-11-06T21:52:41.852Z,11.50
2022-11-06T21:55:27.387Z,12.47
2022-11-06T21:57:55.068Z,10.07
2022-11-06T22:00:22.517Z,11.60
2022-11-06T22:02:51.620Z,10.67
2022-11-06T22:05:19.251Z,8.47
2022-11-06T22:07:46.846Z,10.90
2022-11-06T22:10:14.462Z,9.33
2022-11-06T22:12:41.890Z,9.10
2022-11-06T22:15:09.849Z,9.67
2022-11-06T22:17:37.591Z,10.43
2022-11-06T22:20:07.215Z,12.37
2022-11-06T22:22:34.726Z,10.70
2022-11-06T22:25:02.149Z,12.03
2022-11-06T22:27:29.603Z,10.17
2022-11-06T22:29:57.086Z,11.53
2022-11-06T22:32:24.545Z,12.13
2022-11-06T22:34:52.192Z,10.13
2022-11-06T22:37:21.084Z,10.63
2022-11-06T22:39:48.689Z,12.93
2022-11-06T22:42:16.140Z,11.30
2022-11-06T22:44:43.611Z,12.73
2022-11-06T22:47:11.126Z,9.97
2022-11-06T22:49:39.409Z,8.73
2022-11-06T22:52:07.087Z,10.63
2022-11-06T22:54:36.721Z,10.13
2022-11-06T22:57:04.176Z,8.93
2022-11-06T22:59:32.240Z,8.30
2022-11-06T23:01:59.858Z,8.47
2022-11-06T23:04:27.310Z,8.67
2022-11-06T23:06:54.815Z,7.83
2022-11-06T23:09:22.284Z,7.70
2022-11-06T23:11:51.061Z,7.03
2022-11-06T23:14:18.587Z,6.77
2022-11-06T23:16:57.997Z,6.30
2022-11-06T23:19:25.770Z,9.47
2022-11-06T23:22:13.407Z,10.73
2022-11-06T23:24:41.012Z,11.40
2022-11-06T23:27:09.985Z,9.67
2022-11-06T23:29:37.490Z,11.93
2022-11-06T23:32:05.238Z,10.10
2022-11-06T23:34:32.779Z,11.23
2022-11-06T23:37:00.313Z,8.10
2022-11-06T23:39:27.825Z,10.13
2022-11-06T23:41:56.116Z,10.83
2022-11-06T23:44:42.382Z,10.33
2022-11-06T23:47:09.801Z,9.80
2022-11-06T23:49:37.239Z,9.07
2022-11-06T23:52:04.778Z,8.97
2022-11-06T23:54:32.207Z,9.97
2022-11-06T23:56:59.640Z,12.10
2022-11-06T23:59:28.407Z,10.43
